Terminal Aerodrome Forecast
Issued by NWS Charleston, WV

Current Version | Previous Version | Graphics & Text | Print | Product List | Glossary On
Versions: 1 2 3 4 5 6 7 8 9 10 11 12 13 14 15 16 17 18 19 20 21 22 23
000
FTUS41 KRLX 290240 AAA
TAFCRW
TAF AMD
KCRW 290240Z 2903/2924 00000KT P6SM SCT250
     FM290600 VRB03KT 5SM BR SCT250
     FM290800 15004KT 1 1/2SM BR FEW001
     FM290900 16005KT 1/2SM FG VV001
     FM291200 16004KT 2SM BR BKN001
     FM291300 VRB03KT 3SM BR FEW040
     FM291400 VRB03KT P6SM FEW040=

USA.gov is the U.S. government's official web portal to all federal, state and local government web resources and services.